Time;durP1;ratioP1;P1;durP2;ratioP2;P2;SDS_P1;SDS_P2;PMS_P1;PMS_P2;Temp;Humidity;BMP_temperature;BMP_pressure;BME280_temperature;BME280_humidity;BME280_pressure;Samples;Min_cycle;Max_cycle;Signal;HPM_P1;HPM_P2
2023/01/30 00:00:52;;;;;;;9.50;8.50;;;4.00;78.30;;;;;;930665;149;27726;-78
2023/01/30 00:03:18;;;;;;;11.60;8.70;;;4.10;78.20;;;;;;930126;152;27335;-78
2023/01/30 00:05:45;;;;;;;11.63;8.70;;;4.10;78.10;;;;;;934056;149;27425;-79
2023/01/30 00:08:11;;;;;;;10.23;8.43;;;4.10;78.00;;;;;;932740;150;27330;-78
2023/01/30 00:10:38;;;;;;;9.63;8.40;;;4.20;78.10;;;;;;932772;150;27380;-78
2023/01/30 00:13:05;;;;;;;11.87;8.70;;;4.20;77.90;;;;;;932235;152;27886;-78
2023/01/30 00:15:31;;;;;;;9.70;8.67;;;4.20;77.90;;;;;;932236;149;27427;-78
2023/01/30 00:17:58;;;;;;;10.57;8.23;;;4.20;78.00;;;;;;934316;150;27345;-78
2023/01/30 00:20:24;;;;;;;11.67;8.60;;;4.30;78.00;;;;;;932197;149;27301;-79
2023/01/30 00:22:51;;;;;;;10.00;8.60;;;4.30;78.70;;;;;;934891;149;27373;-78
2023/01/30 00:25:17;;;;;;;10.90;8.60;;;4.30;77.90;;;;;;933362;152;27370;-78
2023/01/30 00:27:44;;;;;;;9.70;8.13;;;4.30;77.90;;;;;;933627;149;27402;-79
2023/01/30 00:30:11;;;;;;;11.87;8.97;;;4.30;77.90;;;;;;933063;149;27330;-79
2023/01/30 00:32:37;;;;;;;12.17;9.20;;;4.30;77.90;;;;;;934314;151;27449;-79
2023/01/30 00:35:05;;;;;;;11.10;9.63;;;4.40;78.00;;;;;;931954;152;27874;-79
2023/01/30 00:37:30;;;;;;;10.07;8.70;;;4.40;78.00;;;;;;933905;151;27340;-78
2023/01/30 00:39:57;;;;;;;12.67;9.20;;;4.40;77.90;;;;;;931640;149;27262;-79
2023/01/30 00:47:56;;;;;;;11.20;8.93;;;4.40;77.90;;;;;;932540;151;27340;-78
2023/01/30 00:50:22;;;;;;;9.47;8.47;;;4.40;78.00;;;;;;933085;152;27330;-78
2023/01/30 00:52:49;;;;;;;11.60;9.03;;;4.40;77.80;;;;;;931919;150;27324;-78
2023/01/30 00:55:16;;;;;;;10.07;8.37;;;4.40;77.90;;;;;;933598;150;27332;-79
2023/01/30 00:57:42;;;;;;;9.00;7.90;;;4.40;77.90;;;;;;934559;149;27358;-78
2023/01/30 01:00:09;;;;;;;10.27;8.37;;;4.40;78.10;;;;;;932663;149;27346;-78
2023/01/30 01:02:36;;;;;;;11.37;8.97;;;4.40;78.10;;;;;;933620;151;27267;-78
2023/01/30 01:05:02;;;;;;;10.80;8.90;;;4.40;77.50;;;;;;933413;152;27297;-79
2023/01/30 01:07:29;;;;;;;10.73;8.67;;;4.40;78.50;;;;;;932075;152;27377;-78
2023/01/30 01:09:55;;;;;;;9.10;8.03;;;4.30;78.30;;;;;;932386;149;27494;-78
2023/01/30 01:12:22;;;;;;;10.30;8.40;;;4.30;78.40;;;;;;932222;152;27357;-78
2023/01/30 01:14:49;;;;;;;8.47;7.50;;;4.30;78.40;;;;;;933164;149;27337;-78
2023/01/30 01:17:15;;;;;;;11.00;8.33;;;4.30;78.60;;;;;;932832;149;27348;-78
2023/01/30 01:19:42;;;;;;;9.83;7.80;;;4.30;78.70;;;;;;933615;150;27352;-78
2023/01/30 01:22:08;;;;;;;11.00;8.40;;;4.30;78.80;;;;;;934081;151;27464;-78
2023/01/30 01:24:35;;;;;;;9.90;8.17;;;4.20;78.70;;;;;;934196;150;27322;-79
2023/01/30 01:27:01;;;;;;;10.30;8.80;;;4.30;78.90;;;;;;935070;149;27441;-79
2023/01/30 01:29:28;;;;;;;10.80;8.33;;;4.30;79.00;;;;;;932601;149;27351;-79
2023/01/30 01:31:55;;;;;;;11.77;8.33;;;4.30;79.00;;;;;;934126;152;27336;-78
2023/01/30 01:34:21;;;;;;;12.67;9.37;;;4.30;79.20;;;;;;934223;149;27317;-79
2023/01/30 01:36:48;;;;;;;11.53;9.23;;;4.30;79.30;;;;;;934686;151;27400;-77
2023/01/30 01:39:14;;;;;;;12.17;9.73;;;4.30;79.30;;;;;;932434;149;27277;-79
2023/01/30 01:41:41;;;;;;;11.47;8.97;;;4.30;79.20;;;;;;935388;149;27874;-79
2023/01/30 01:44:10;;;;;;;9.47;8.47;;;4.30;79.30;;;;;;934752;152;27313;-79
2023/01/30 01:46:45;;;;;;;11.30;8.20;;;4.30;79.60;;;;;;933380;150;27324;-78
2023/01/30 01:49:12;;;;;;;11.53;9.03;;;4.30;79.30;;;;;;933321;149;27366;-76
2023/01/30 01:51:38;;;;;;;10.30;8.47;;;4.30;79.40;;;;;;928628;149;27353;-78
2023/01/30 01:54:08;;;;;;;10.57;7.97;;;4.30;79.30;;;;;;934580;149;27375;-78
2023/01/30 01:56:34;;;;;;;10.13;8.67;;;4.30;80.10;;;;;;933539;151;27391;-79
2023/01/30 01:59:01;;;;;;;10.17;8.63;;;4.30;79.30;;;;;;933763;151;27348;-78
2023/01/30 02:01:28;;;;;;;9.53;8.53;;;4.30;79.50;;;;;;933284;152;27467;-78
2023/01/30 02:03:54;;;;;;;10.37;8.53;;;4.40;79.50;;;;;;933099;152;27340;-78
2023/01/30 02:06:21;;;;;;;12.10;9.50;;;4.40;79.80;;;;;;932700;149;27336;-77
2023/01/30 02:08:47;;;;;;;9.67;8.67;;;4.40;79.60;;;;;;931598;151;27443;-79
2023/01/30 02:11:14;;;;;;;10.40;7.90;;;4.40;79.70;;;;;;933036;151;27706;-77
2023/01/30 02:13:40;;;;;;;10.70;8.53;;;4.40;79.50;;;;;;933055;149;27391;-78
2023/01/30 02:16:07;;;;;;;10.57;8.27;;;4.40;80.00;;;;;;932481;152;27317;-78
2023/01/30 02:18:34;;;;;;;9.50;7.90;;;4.40;79.50;;;;;;932957;149;27354;-78
2023/01/30 02:21:09;;;;;;;11.80;9.10;;;4.40;79.50;;;;;;935401;149;27327;-78
2023/01/30 02:24:06;;;;;;;11.13;9.50;;;4.40;79.50;;;;;;931200;152;27405;-77
2023/01/30 02:26:48;;;;;;;9.90;8.53;;;4.40;79.60;;;;;;932356;152;27370;-77
2023/01/30 02:29:23;;;;;;;11.47;8.90;;;4.40;79.40;;;;;;934086;149;27267;-77
2023/01/30 02:31:50;;;;;;;9.33;8.33;;;4.40;79.50;;;;;;930478;152;27313;-77
2023/01/30 02:34:38;;;;;;;12.17;9.13;;;4.40;79.60;;;;;;931977;151;27391;-78
2023/01/30 02:37:28;;;;;;;9.43;8.00;;;4.40;79.80;;;;;;934506;152;27496;-77
2023/01/30 02:40:00;;;;;;;10.47;7.97;;;4.40;80.10;;;;;;934421;149;28795;-78
2023/01/30 02:42:49;;;;;;;9.70;7.93;;;4.40;79.80;;;;;;932856;150;27453;-78
2023/01/30 02:45:33;;;;;;;11.10;8.70;;;4.40;79.60;;;;;;932298;150;27329;-78
2023/01/30 02:48:02;;;;;;;11.23;8.73;;;4.40;79.60;;;;;;913992;150;27310;-78
2023/01/30 02:50:41;;;;;;;11.30;8.00;;;4.40;79.60;;;;;;934581;149;27364;-78
2023/01/30 02:53:08;;;;;;;9.50;7.97;;;4.40;79.80;;;;;;933936;151;28406;-79
2023/01/30 02:55:35;;;;;;;10.87;8.73;;;4.50;80.10;;;;;;931842;152;27334;-78
2023/01/30 02:58:01;;;;;;;9.83;7.77;;;4.50;79.80;;;;;;933680;152;27415;-79
2023/01/30 03:00:46;;;;;;;10.10;8.57;;;4.50;80.00;;;;;;933553;149;27285;-79
2023/01/30 03:03:25;;;;;;;9.67;8.10;;;4.50;80.00;;;;;;932464;151;27434;-78
2023/01/30 03:06:07;;;;;;;10.37;8.47;;;4.50;80.00;;;;;;933741;152;27373;-78
2023/01/30 03:08:55;;;;;;;10.00;7.73;;;4.50;79.90;;;;;;933640;152;27441;-77
2023/01/30 03:11:23;;;;;;;11.13;9.13;;;4.50;79.80;;;;;;932125;149;27485;-78
2023/01/30 03:14:06;;;;;;;10.13;8.50;;;4.50;79.80;;;;;;938969;148;27460;-78
2023/01/30 03:16:35;;;;;;;11.17;8.87;;;4.50;79.90;;;;;;941167;150;27354;-79
2023/01/30 03:19:02;;;;;;;9.50;8.00;;;4.60;80.00;;;;;;938352;148;27492;-78
2023/01/30 03:21:29;;;;;;;10.30;8.00;;;4.60;80.00;;;;;;940464;151;28092;-77
2023/01/30 03:23:55;;;;;;;9.87;8.03;;;4.60;80.10;;;;;;940943;151;27361;-79
2023/01/30 03:26:22;;;;;;;11.73;8.30;;;4.60;80.00;;;;;;940838;150;27316;-77
2023/01/30 03:28:48;;;;;;;11.97;8.57;;;4.60;80.00;;;;;;940404;148;27391;-77
2023/01/30 03:31:15;;;;;;;11.10;9.00;;;4.60;80.00;;;;;;939747;148;27419;-78
2023/01/30 03:33:42;;;;;;;10.37;8.20;;;4.60;80.00;;;;;;941928;151;27268;-78
2023/01/30 03:36:08;;;;;;;9.37;7.37;;;4.60;79.90;;;;;;941462;150;27372;-78
2023/01/30 03:38:35;;;;;;;11.50;8.57;;;4.60;80.00;;;;;;938885;151;27344;-79
2023/01/30 03:41:01;;;;;;;12.50;8.77;;;4.70;80.00;;;;;;940937;148;27435;-77
2023/01/30 03:43:28;;;;;;;10.40;8.37;;;4.70;80.00;;;;;;939477;151;27349;-78
2023/01/30 03:45:54;;;;;;;10.17;7.87;;;4.70;80.00;;;;;;941219;151;27408;-78
2023/01/30 03:48:23;;;;;;;9.67;7.73;;;4.70;79.80;;;;;;939872;151;27412;-78
2023/01/30 03:50:50;;;;;;;9.90;8.20;;;4.70;79.90;;;;;;939347;148;27472;-78
2023/01/30 03:53:17;;;;;;;10.33;8.07;;;4.70;79.80;;;;;;938704;150;27308;-78
2023/01/30 03:55:43;;;;;;;9.37;7.83;;;4.80;79.90;;;;;;941698;151;27321;-79
2023/01/30 03:58:10;;;;;;;10.30;9.07;;;4.80;79.90;;;;;;939355;151;27644;-78
2023/01/30 04:00:36;;;;;;;10.00;7.60;;;4.80;79.90;;;;;;940737;148;27441;-78
2023/01/30 04:03:03;;;;;;;9.83;8.00;;;4.80;79.90;;;;;;941607;150;27356;-79
2023/01/30 04:05:30;;;;;;;10.17;8.10;;;4.80;79.90;;;;;;940279;151;27330;-79
2023/01/30 04:07:56;;;;;;;11.43;9.23;;;4.80;79.90;;;;;;941008;150;27280;-78
2023/01/30 04:10:23;;;;;;;11.27;8.97;;;4.80;80.00;;;;;;938940;148;27257;-78
2023/01/30 04:12:49;;;;;;;10.57;8.47;;;4.80;80.00;;;;;;939821;151;27429;-78
2023/01/30 04:15:16;;;;;;;11.70;8.70;;;4.80;79.90;;;;;;932719;149;27444;-78
2023/01/30 04:17:43;;;;;;;9.73;8.20;;;4.80;79.90;;;;;;932903;152;27456;-78
2023/01/30 04:20:09;;;;;;;10.80;8.87;;;4.80;79.90;;;;;;933237;149;27736;-78
2023/01/30 04:22:36;;;;;;;10.60;8.80;;;4.80;79.90;;;;;;932765;151;27430;-78
2023/01/30 04:25:02;;;;;;;11.17;8.87;;;4.80;79.20;;;;;;932843;152;27369;-78
2023/01/30 04:27:29;;;;;;;11.53;8.77;;;4.80;80.00;;;;;;932831;149;27705;-78
2023/01/30 04:29:56;;;;;;;11.47;9.73;;;4.80;80.00;;;;;;932065;149;27326;-78
2023/01/30 04:32:22;;;;;;;12.93;9.50;;;4.80;80.00;;;;;;933451;151;27421;-78
2023/01/30 04:34:49;;;;;;;10.83;8.30;;;4.80;80.00;;;;;;931900;152;27441;-78
2023/01/30 04:37:15;;;;;;;10.13;8.50;;;4.80;80.00;;;;;;934036;151;27349;-78
2023/01/30 04:39:42;;;;;;;11.23;8.23;;;4.80;80.80;;;;;;933546;149;27330;-78
2023/01/30 04:42:09;;;;;;;12.17;9.57;;;4.80;80.20;;;;;;932372;149;27310;-78
2023/01/30 04:44:35;;;;;;;10.73;8.80;;;4.80;80.20;;;;;;933750;151;27765;-78
2023/01/30 04:47:02;;;;;;;11.70;9.20;;;4.80;80.20;;;;;;932157;151;27379;-78
2023/01/30 04:49:28;;;;;;;13.30;10.30;;;4.80;80.30;;;;;;931654;149;27334;-78
2023/01/30 04:51:55;;;;;;;11.63;9.43;;;4.80;80.30;;;;;;931578;149;27320;-78
2023/01/30 04:54:21;;;;;;;12.60;9.63;;;4.80;80.30;;;;;;933555;151;27382;-78
2023/01/30 04:56:48;;;;;;;11.93;9.63;;;4.80;80.30;;;;;;931953;150;27439;-78
2023/01/30 04:59:15;;;;;;;11.40;9.33;;;4.80;80.50;;;;;;931685;149;27367;-78
2023/01/30 05:01:41;;;;;;;12.53;9.33;;;4.80;80.50;;;;;;932785;152;27337;-78
2023/01/30 05:04:08;;;;;;;11.40;9.63;;;4.80;80.60;;;;;;932639;149;27256;-78
2023/01/30 05:06:35;;;;;;;15.07;10.33;;;4.80;80.70;;;;;;933553;151;27255;-78
2023/01/30 05:09:01;;;;;;;11.97;9.40;;;4.80;80.80;;;;;;933648;149;27331;-78
2023/01/30 05:11:28;;;;;;;12.10;9.13;;;4.80;80.90;;;;;;932625;152;27365;-78
2023/01/30 05:13:54;;;;;;;12.47;10.10;;;4.80;80.70;;;;;;932024;149;27456;-78
2023/01/30 05:16:21;;;;;;;13.03;10.10;;;4.80;80.90;;;;;;932718;151;27333;-78
2023/01/30 05:18:47;;;;;;;11.77;9.47;;;4.80;81.00;;;;;;934455;150;27521;-78
2023/01/30 05:21:14;;;;;;;12.90;9.60;;;4.80;80.80;;;;;;932080;149;27328;-78
2023/01/30 05:23:41;;;;;;;11.70;10.07;;;4.80;81.00;;;;;;933101;152;27727;-78
2023/01/30 05:26:07;;;;;;;11.97;9.50;;;4.80;81.10;;;;;;933760;149;27398;-78
2023/01/30 05:28:34;;;;;;;11.80;10.27;;;4.80;80.80;;;;;;931676;152;27334;-78
2023/01/30 05:31:06;;;;;;;12.83;10.10;;;4.80;81.00;;;;;;932798;149;27447;-78
2023/01/30 05:33:33;;;;;;;12.47;9.87;;;4.90;81.10;;;;;;932444;151;27770;-78
2023/01/30 05:35:59;;;;;;;13.63;10.23;;;4.90;81.30;;;;;;931529;152;27406;-78
2023/01/30 05:38:26;;;;;;;12.70;10.43;;;4.90;81.20;;;;;;931654;151;27312;-78
2023/01/30 05:41:02;;;;;;;12.77;9.50;;;4.90;81.30;;;;;;932650;149;27365;-78
2023/01/30 05:43:28;;;;;;;13.37;9.53;;;4.90;81.80;;;;;;933847;152;27494;-78
2023/01/30 05:45:55;;;;;;;11.63;9.63;;;4.90;81.10;;;;;;933558;152;27345;-78
2023/01/30 05:48:21;;;;;;;11.83;9.63;;;4.90;81.10;;;;;;933492;152;27428;-77
2023/01/30 05:50:51;;;;;;;11.83;9.47;;;4.90;81.00;;;;;;933660;149;27330;-77
2023/01/30 05:53:18;;;;;;;11.50;9.43;;;4.90;81.10;;;;;;934315;152;27321;-78
2023/01/30 05:55:44;;;;;;;12.67;10.00;;;4.90;81.10;;;;;;932249;151;27447;-78
2023/01/30 05:58:11;;;;;;;12.70;9.53;;;4.90;81.00;;;;;;932560;149;27317;-78
2023/01/30 06:00:37;;;;;;;12.87;9.13;;;4.90;81.00;;;;;;933561;149;27371;-77
2023/01/30 06:03:04;;;;;;;13.20;9.97;;;4.90;81.10;;;;;;935791;149;27423;-78
2023/01/30 06:05:30;;;;;;;12.63;10.13;;;4.90;81.00;;;;;;933145;152;27361;-78
2023/01/30 06:07:57;;;;;;;13.43;10.40;;;4.90;81.20;;;;;;932697;152;27437;-78
2023/01/30 06:10:24;;;;;;;12.73;10.00;;;4.90;81.40;;;;;;934626;149;27297;-78
2023/01/30 06:12:50;;;;;;;12.07;9.47;;;4.90;81.50;;;;;;932201;149;27407;-78
2023/01/30 06:15:17;;;;;;;12.03;10.13;;;4.90;81.60;;;;;;934049;149;27422;-78
2023/01/30 06:17:43;;;;;;;11.73;9.27;;;4.90;81.70;;;;;;936157;149;27396;-78
2023/01/30 06:20:10;;;;;;;11.53;9.20;;;4.90;81.60;;;;;;931679;149;27398;-78
2023/01/30 06:22:37;;;;;;;12.03;9.67;;;4.90;81.70;;;;;;935426;152;27425;-78
2023/01/30 06:25:03;;;;;;;12.60;10.57;;;4.90;81.80;;;;;;932515;149;27309;-78
2023/01/30 06:27:30;;;;;;;11.77;8.73;;;4.90;82.00;;;;;;933004;151;27330;-78
2023/01/30 06:29:57;;;;;;;11.53;9.03;;;4.90;81.90;;;;;;932204;149;27475;-77
2023/01/30 06:32:23;;;;;;;11.83;9.60;;;4.90;81.90;;;;;;933240;152;28411;-78
2023/01/30 06:34:50;;;;;;;12.00;9.50;;;4.90;81.90;;;;;;933808;149;27382;-77
2023/01/30 06:37:16;;;;;;;12.17;8.73;;;4.90;82.00;;;;;;932854;149;27270;-78
2023/01/30 06:39:43;;;;;;;11.83;9.53;;;4.90;81.90;;;;;;933685;149;27471;-78
2023/01/30 06:42:09;;;;;;;11.47;8.50;;;4.90;81.80;;;;;;933596;151;27433;-78
2023/01/30 06:44:36;;;;;;;10.70;8.30;;;4.90;81.90;;;;;;933251;152;27366;-78
2023/01/30 06:47:03;;;;;;;10.87;8.63;;;4.90;82.10;;;;;;932545;149;27245;-78
2023/01/30 06:49:29;;;;;;;10.57;8.63;;;5.00;82.30;;;;;;932426;149;27308;-77
2023/01/30 06:51:56;;;;;;;9.63;7.93;;;5.00;82.70;;;;;;934925;149;27358;-78
2023/01/30 06:54:22;;;;;;;11.53;8.50;;;5.00;82.40;;;;;;933694;151;28885;-78
2023/01/30 06:56:49;;;;;;;9.97;8.20;;;5.00;82.40;;;;;;932511;149;27290;-78
2023/01/30 06:59:16;;;;;;;10.07;7.80;;;5.00;82.50;;;;;;933959;149;27288;-78
2023/01/30 07:01:42;;;;;;;9.53;7.83;;;5.00;82.40;;;;;;933197;149;27458;-78
2023/01/30 07:04:09;;;;;;;10.73;8.57;;;5.00;82.70;;;;;;932764;150;27238;-78
2023/01/30 07:06:35;;;;;;;10.50;8.50;;;5.00;82.50;;;;;;930679;150;27281;-78
2023/01/30 07:09:02;;;;;;;10.37;8.17;;;5.10;82.90;;;;;;932700;150;27386;-78
2023/01/30 07:11:30;;;;;;;8.90;7.83;;;5.10;82.80;;;;;;932599;149;27381;-80
2023/01/30 07:13:55;;;;;;;8.50;7.03;;;5.10;82.70;;;;;;934731;151;27365;-80
2023/01/30 07:16:27;;;;;;;8.83;7.80;;;5.10;82.60;;;;;;938020;151;27412;-79
2023/01/30 07:18:48;;;;;;;11.17;8.37;;;5.10;82.70;;;;;;940430;148;27448;-79
2023/01/30 07:21:15;;;;;;;8.67;6.93;;;5.20;82.70;;;;;;940321;148;27763;-78
2023/01/30 07:23:42;;;;;;;10.87;8.97;;;5.20;82.70;;;;;;940907;150;27432;-78
2023/01/30 07:26:08;;;;;;;9.60;7.83;;;5.20;82.50;;;;;;940215;148;27528;-79
2023/01/30 07:28:35;;;;;;;9.37;7.60;;;5.20;82.80;;;;;;941073;151;27327;-78
2023/01/30 07:31:01;;;;;;;10.20;7.80;;;5.20;82.80;;;;;;940246;148;27328;-79
2023/01/30 07:33:28;;;;;;;10.03;7.97;;;5.20;82.80;;;;;;940594;151;27289;-78
2023/01/30 07:35:54;;;;;;;9.60;8.03;;;5.20;82.80;;;;;;941219;148;27379;-79
2023/01/30 07:38:21;;;;;;;10.53;8.47;;;5.20;83.00;;;;;;940450;151;27357;-79
2023/01/30 07:40:48;;;;;;;9.20;7.60;;;5.20;83.00;;;;;;941934;148;27447;-79
2023/01/30 07:43:14;;;;;;;10.47;8.70;;;5.20;83.00;;;;;;940597;150;27256;-79
2023/01/30 07:45:43;;;;;;;8.10;7.10;;;5.20;83.00;;;;;;941593;151;27343;-79
2023/01/30 07:48:10;;;;;;;9.23;7.50;;;5.20;83.20;;;;;;941557;148;27321;-78
2023/01/30 07:50:37;;;;;;;10.40;8.37;;;5.20;83.30;;;;;;940458;151;27290;-79
2023/01/30 07:53:06;;;;;;;9.83;8.13;;;5.20;83.10;;;;;;939905;148;27626;-79
2023/01/30 07:55:32;;;;;;;9.10;7.07;;;5.20;83.30;;;;;;942556;148;27443;-78
2023/01/30 07:57:59;;;;;;;9.97;8.00;;;5.20;83.30;;;;;;940753;151;27405;-78
2023/01/30 08:00:25;;;;;;;10.27;7.83;;;5.20;83.60;;;;;;942280;148;27435;-78
2023/01/30 08:02:52;;;;;;;9.13;7.23;;;5.20;83.70;;;;;;939935;148;27311;-78
2023/01/30 08:05:19;;;;;;;8.73;7.30;;;5.20;84.20;;;;;;942828;151;27415;-79
2023/01/30 08:07:46;;;;;;;9.70;8.40;;;5.20;83.80;;;;;;940512;150;27348;-78
2023/01/30 08:10:12;;;;;;;8.27;7.33;;;5.30;84.10;;;;;;941944;148;27341;-78
2023/01/30 08:12:38;;;;;;;9.80;8.03;;;5.30;83.90;;;;;;942433;151;27308;-78
2023/01/30 08:15:05;;;;;;;10.47;8.53;;;5.30;84.10;;;;;;940004;148;27269;-78
2023/01/30 08:17:32;;;;;;;10.37;8.13;;;5.30;84.10;;;;;;933217;149;27515;-78
2023/01/30 08:19:58;;;;;;;10.63;8.33;;;5.30;84.30;;;;;;934430;149;27437;-79
2023/01/30 08:22:25;;;;;;;10.30;8.17;;;5.30;84.60;;;;;;932090;151;27362;-78
2023/01/30 08:24:52;;;;;;;8.97;7.97;;;5.30;84.70;;;;;;933356;149;27749;-78
2023/01/30 08:27:18;;;;;;;9.67;7.53;;;5.30;84.70;;;;;;933033;149;27379;-78
2023/01/30 08:29:45;;;;;;;11.37;8.83;;;5.30;84.80;;;;;;931690;149;27440;-78
2023/01/30 08:32:11;;;;;;;10.43;8.53;;;5.40;84.90;;;;;;931928;152;27435;-78
2023/01/30 08:34:38;;;;;;;10.47;7.87;;;5.40;84.90;;;;;;932355;152;27700;-78
2023/01/30 08:37:04;;;;;;;10.97;9.00;;;5.40;85.20;;;;;;934085;149;27484;-78
2023/01/30 08:39:31;;;;;;;9.80;8.10;;;5.40;85.30;;;;;;934291;149;27332;-78
2023/01/30 08:41:58;;;;;;;9.10;7.50;;;5.50;85.20;;;;;;934514;149;27397;-78
2023/01/30 08:44:24;;;;;;;9.63;8.30;;;5.50;85.50;;;;;;931752;152;27361;-78
2023/01/30 08:46:51;;;;;;;8.90;6.93;;;5.50;85.20;;;;;;933782;149;27432;-78
2023/01/30 08:49:17;;;;;;;8.20;7.33;;;5.60;85.50;;;;;;933137;149;27448;-78
2023/01/30 08:51:44;;;;;;;8.57;7.03;;;5.60;85.70;;;;;;935229;149;27332;-78
2023/01/30 08:54:11;;;;;;;9.40;7.60;;;5.60;85.70;;;;;;934069;149;27364;-78
2023/01/30 08:56:37;;;;;;;7.17;6.33;;;5.70;86.20;;;;;;933180;152;27411;-78
2023/01/30 08:59:04;;;;;;;14.50;10.10;;;5.70;85.80;;;;;;931659;149;27371;-78
2023/01/30 09:01:30;;;;;;;10.87;7.63;;;5.70;86.00;;;;;;933202;149;27431;-78
2023/01/30 09:03:57;;;;;;;8.30;7.10;;;5.80;86.20;;;;;;932160;149;27365;-78
2023/01/30 09:06:24;;;;;;;9.13;7.23;;;5.80;85.80;;;;;;932175;149;28403;-78
2023/01/30 09:08:50;;;;;;;8.07;7.27;;;5.80;86.20;;;;;;933638;149;27254;-78
2023/01/30 09:11:17;;;;;;;7.43;6.40;;;5.80;86.30;;;;;;934239;150;27338;-78
2023/01/30 09:13:43;;;;;;;7.67;6.87;;;5.80;86.60;;;;;;935462;152;27301;-78
2023/01/30 09:16:10;;;;;;;8.30;6.37;;;5.80;86.70;;;;;;934109;148;27363;-78
2023/01/30 09:18:42;;;;;;;7.63;6.77;;;5.80;86.20;;;;;;931391;149;27452;-78
2023/01/30 09:21:09;;;;;;;6.87;6.27;;;5.80;86.40;;;;;;933245;149;27791;-77
2023/01/30 09:23:35;;;;;;;8.03;6.57;;;5.80;86.50;;;;;;935134;149;27378;-78
2023/01/30 09:26:02;;;;;;;7.10;6.40;;;5.80;86.90;;;;;;933048;149;27432;-78
2023/01/30 09:28:29;;;;;;;6.70;5.97;;;5.80;86.80;;;;;;931722;151;28655;-79
2023/01/30 09:30:58;;;;;;;7.37;6.60;;;5.80;86.60;;;;;;932902;149;27453;-79
2023/01/30 09:33:25;;;;;;;7.37;6.53;;;5.80;86.90;;;;;;935459;152;27258;-77
2023/01/30 09:35:51;;;;;;;6.90;6.13;;;5.80;87.00;;;;;;932799;152;27374;-77
2023/01/30 09:38:18;;;;;;;7.53;6.73;;;5.80;87.40;;;;;;931279;149;27339;-77
2023/01/30 09:40:59;;;;;;;7.13;5.97;;;5.80;87.20;;;;;;934335;149;27313;-77
2023/01/30 09:43:32;;;;;;;7.77;6.83;;;5.80;87.20;;;;;;933113;149;27369;-78
2023/01/30 09:46:08;;;;;;;6.90;6.10;;;5.80;88.00;;;;;;933257;149;27285;-78
2023/01/30 09:48:43;;;;;;;6.83;6.03;;;5.80;87.70;;;;;;935203;149;27410;-78
2023/01/30 09:51:10;;;;;;;6.43;5.80;;;5.80;88.00;;;;;;932388;149;27429;-78
2023/01/30 09:53:49;;;;;;;7.70;5.90;;;5.90;88.20;;;;;;934551;151;27414;-78
2023/01/30 09:56:15;;;;;;;6.67;5.97;;;5.90;88.20;;;;;;935157;152;27266;-78
2023/01/30 09:58:44;;;;;;;7.23;6.07;;;6.00;88.10;;;;;;934540;149;27389;-78
2023/01/30 10:01:11;;;;;;;6.87;6.17;;;6.00;88.20;;;;;;933818;149;27329;-78
2023/01/30 10:03:40;;;;;;;7.63;6.23;;;6.00;88.20;;;;;;933449;149;27327;-78
2023/01/30 10:06:06;;;;;;;8.13;5.70;;;6.10;88.10;;;;;;931197;151;27447;-78
2023/01/30 10:08:45;;;;;;;6.57;5.90;;;6.10;88.10;;;;;;931807;151;27441;-77
2023/01/30 10:11:23;;;;;;;5.93;5.23;;;6.20;88.10;;;;;;931867;149;27303;-78
2023/01/30 10:14:05;;;;;;;8.73;6.17;;;6.20;87.90;;;;;;932855;151;27280;-78
2023/01/30 10:16:41;;;;;;;6.00;5.40;;;6.30;88.00;;;;;;932769;152;27303;-78
2023/01/30 10:19:32;;;;;;;6.47;5.50;;;6.30;88.20;;;;;;932740;149;27504;-78
2023/01/30 10:22:26;;;;;;;6.10;5.50;;;6.40;88.00;;;;;;915931;151;27357;-78
2023/01/30 10:25:11;;;;;;;6.50;5.53;;;6.40;87.90;;;;;;933187;149;27344;-78
2023/01/30 10:27:37;;;;;;;5.43;4.93;;;6.50;87.80;;;;;;932481;152;27332;-78
2023/01/30 10:30:04;;;;;;;5.50;5.00;;;6.50;88.10;;;;;;931871;149;27405;-78
2023/01/30 10:32:49;;;;;;;5.30;4.80;;;6.60;88.50;;;;;;932450;151;27653;-78
2023/01/30 10:35:16;;;;;;;6.50;5.80;;;6.70;88.90;;;;;;918486;151;27330;-78
2023/01/30 10:37:42;;;;;;;5.87;5.30;;;6.80;88.70;;;;;;931357;151;27364;-78
2023/01/30 10:40:27;;;;;;;7.00;5.33;;;6.90;88.90;;;;;;932260;149;27336;-78
2023/01/30 10:42:57;;;;;;;5.60;4.70;;;7.00;88.50;;;;;;932691;151;27320;-78
2023/01/30 10:45:24;;;;;;;5.87;5.27;;;7.10;88.40;;;;;;930216;150;27336;-78
2023/01/30 10:48:11;;;;;;;5.67;5.07;;;7.20;88.50;;;;;;930733;151;27437;-78
2023/01/30 10:50:43;;;;;;;5.50;4.77;;;7.40;88.60;;;;;;930862;149;27527;-78
2023/01/30 10:53:25;;;;;;;6.20;5.60;;;7.50;88.70;;;;;;932418;151;27385;-78
2023/01/30 10:59:14;;;;;;;5.07;4.20;;;7.70;88.50;;;;;;931301;149;28556;-79
2023/01/30 11:01:43;;;;;;;6.20;4.77;;;7.90;88.20;;;;;;930216;152;27323;-79
2023/01/30 11:04:37;;;;;;;5.07;4.53;;;8.00;88.10;;;;;;932274;151;27419;-79
2023/01/30 11:07:04;;;;;;;5.20;4.70;;;8.20;88.10;;;;;;917317;151;27472;-79
2023/01/30 11:09:43;;;;;;;5.43;4.60;;;8.30;87.40;;;;;;934284;149;27421;-79
2023/01/30 11:12:09;;;;;;;4.97;4.33;;;8.40;86.70;;;;;;930654;149;27791;-78
2023/01/30 11:15:01;;;;;;;4.80;4.20;;;8.60;86.20;;;;;;932252;152;27334;-77
2023/01/30 11:17:36;;;;;;;4.60;3.93;;;8.60;85.90;;;;;;934123;151;27418;-78
2023/01/30 11:20:03;;;;;;;4.13;3.73;;;8.70;85.50;;;;;;942432;148;27305;-78
2023/01/30 11:22:29;;;;;;;3.27;2.97;;;8.80;85.80;;;;;;939852;151;27411;-78
2023/01/30 11:25:07;;;;;;;3.80;3.37;;;8.90;84.80;;;;;;939897;148;27800;-78
2023/01/30 11:27:34;;;;;;;4.10;3.70;;;9.00;84.70;;;;;;940974;151;27274;-79
2023/01/30 11:30:03;;;;;;;3.53;2.90;;;9.00;84.70;;;;;;939762;148;27429;-78
2023/01/30 11:32:30;;;;;;;2.97;2.67;;;9.10;85.30;;;;;;936794;151;27458;-79
2023/01/30 11:35:09;;;;;;;3.40;3.10;;;9.20;84.20;;;;;;940796;148;27997;-79
2023/01/30 11:37:35;;;;;;;3.00;2.70;;;9.20;83.90;;;;;;936875;151;27393;-79
2023/01/30 11:40:17;;;;;;;3.63;2.70;;;9.20;83.50;;;;;;941136;148;27321;-78
2023/01/30 11:42:46;;;;;;;2.90;2.50;;;9.30;83.40;;;;;;940018;148;27416;-78
2023/01/30 11:45:13;;;;;;;2.17;2.07;;;9.30;83.00;;;;;;940402;148;27372;-78
2023/01/30 11:47:39;;;;;;;3.47;2.13;;;9.30;82.70;;;;;;940007;148;27841;-78
2023/01/30 11:50:06;;;;;;;2.47;2.23;;;9.30;82.70;;;;;;940744;148;27277;-78
2023/01/30 11:52:33;;;;;;;2.37;2.17;;;9.30;82.50;;;;;;940312;151;27776;-78
2023/01/30 11:55:04;;;;;;;2.13;2.00;;;9.30;82.30;;;;;;937642;150;27409;-77
2023/01/30 11:57:26;;;;;;;6.70;2.53;;;9.30;82.30;;;;;;939029;150;27363;-78
2023/01/30 11:59:55;;;;;;;2.67;2.47;;;9.30;82.30;;;;;;941255;148;27284;-78
2023/01/30 12:02:24;;;;;;;2.40;2.20;;;9.30;82.50;;;;;;939032;148;27488;-78
2023/01/30 12:04:52;;;;;;;2.63;2.43;;;9.30;82.20;;;;;;941213;148;27438;-77
2023/01/30 12:07:23;;;;;;;3.23;2.67;;;9.30;82.30;;;;;;939071;150;27364;-80
2023/01/30 12:09:50;;;;;;;3.00;2.70;;;9.30;82.20;;;;;;939613;151;27425;-78
2023/01/30 12:12:28;;;;;;;3.03;2.73;;;9.30;82.30;;;;;;943731;151;27346;-78
2023/01/30 12:15:31;;;;;;;2.80;2.50;;;9.30;82.10;;;;;;941924;148;27441;-78
2023/01/30 12:18:25;;;;;;;3.37;2.80;;;9.30;81.90;;;;;;941710;148;27430;-78
2023/01/30 12:21:01;;;;;;;3.37;3.07;;;9.30;82.00;;;;;;931829;149;27335;-78
2023/01/30 12:23:33;;;;;;;3.00;2.70;;;9.20;81.90;;;;;;931921;152;27410;-78
2023/01/30 12:26:12;;;;;;;4.27;3.60;;;9.20;81.80;;;;;;931084;152;27300;-78
2023/01/30 12:28:48;;;;;;;3.30;3.00;;;9.20;81.70;;;;;;931367;151;27377;-78
2023/01/30 12:31:23;;;;;;;2.80;2.50;;;9.20;81.60;;;;;;931491;149;27409;-78
2023/01/30 12:33:49;;;;;;;2.70;2.50;;;9.10;81.50;;;;;;934764;149;27277;-78
2023/01/30 12:36:16;;;;;;;2.70;2.50;;;9.10;81.60;;;;;;932225;149;27393;-78
2023/01/30 12:39:04;;;;;;;2.73;2.53;;;9.10;81.80;;;;;;934120;152;27337;-78
2023/01/30 12:41:58;;;;;;;2.50;2.30;;;9.00;82.10;;;;;;931063;151;27329;-78
2023/01/30 12:44:40;;;;;;;4.13;3.40;;;9.00;82.20;;;;;;932175;152;27658;-78
2023/01/30 12:47:31;;;;;;;2.70;2.50;;;8.90;82.40;;;;;;932543;152;27445;-78
2023/01/30 12:50:19;;;;;;;2.47;2.27;;;8.80;82.40;;;;;;925140;151;27393;-78
2023/01/30 12:52:48;;;;;;;2.47;2.27;;;8.70;82.40;;;;;;933026;152;27321;-78
2023/01/30 12:55:32;;;;;;;2.33;2.13;;;8.60;82.70;;;;;;933487;152;27299;-78
2023/01/30 12:58:11;;;;;;;2.40;2.20;;;8.50;83.00;;;;;;933386;152;27445;-78
2023/01/30 13:00:44;;;;;;;2.87;2.50;;;8.50;83.30;;;;;;929738;149;27454;-77
2023/01/30 13:03:35;;;;;;;2.20;2.10;;;8.50;83.60;;;;;;932232;152;27346;-78
2023/01/30 13:06:07;;;;;;;5.57;2.60;;;8.40;83.90;;;;;;934950;152;27312;-78
2023/01/30 13:08:54;;;;;;;2.50;2.30;;;8.40;84.40;;;;;;932678;151;27396;-78
2023/01/30 13:11:36;;;;;;;2.80;1.80;;;8.50;84.60;;;;;;933582;152;27470;-78